createdAt,value
2023-05-15T00:01:18.813Z,60.01
2023-05-15T00:06:21.413Z,60.37
2023-05-15T00:11:24.007Z,60.35
2023-05-15T00:16:26.483Z,60.55
2023-05-15T00:21:29.082Z,60.59
2023-05-15T00:26:31.508Z,60.79
2023-05-15T00:31:34.016Z,60.83
2023-05-15T00:36:36.547Z,60.78
2023-05-15T00:41:39.576Z,60.93
2023-05-15T00:46:42.627Z,61.32
2023-05-15T00:51:45.089Z,61.47
2023-05-15T00:56:48.570Z,61.97
2023-05-15T01:01:52.330Z,61.89
2023-05-15T01:06:54.849Z,62.03
2023-05-15T01:11:58.159Z,62.28
2023-05-15T01:17:01.534Z,62.21
2023-05-15T01:22:22.420Z,63.98
2023-05-15T01:27:36.309Z,62.67
2023-05-15T01:32:56.221Z,64.63
2023-05-15T01:38:04.582Z,61.66
2023-05-15T01:43:10.124Z,63.21
2023-05-15T01:48:13.320Z,63.17
2023-05-15T01:53:16.009Z,63.39
2023-05-15T01:58:19.092Z,63.24
2023-05-15T02:03:22.912Z,63.72
2023-05-15T02:08:26.470Z,63.86
2023-05-15T02:13:29.558Z,63.96
2023-05-15T02:18:32.077Z,64.12
2023-05-15T02:23:54.518Z,64.10
2023-05-15T02:29:30.937Z,66.15
2023-05-15T02:34:53.859Z,66.10
2023-05-15T02:40:00.194Z,65.48
2023-05-15T02:45:03.754Z,65.30
2023-05-15T02:50:07.787Z,65.35
2023-05-15T02:55:10.827Z,65.48
2023-05-15T03:00:14.053Z,65.64
2023-05-15T03:05:16.790Z,65.68
2023-05-15T03:10:19.312Z,66.08
2023-05-15T03:15:22.460Z,66.37
2023-05-15T03:20:25.218Z,66.84
2023-05-15T03:25:28.006Z,66.90
2023-05-15T03:30:30.699Z,66.96
2023-05-15T03:35:34.218Z,66.94
2023-05-15T03:40:41.379Z,67.79
2023-05-15T03:45:44.369Z,67.02
2023-05-15T03:50:46.940Z,66.80
2023-05-15T03:55:49.608Z,66.26
2023-05-15T04:00:52.145Z,65.33
2023-05-15T04:05:54.695Z,65.27
2023-05-15T04:10:57.247Z,64.84
2023-05-15T04:16:01.306Z,63.76
2023-05-15T04:21:04.115Z,62.92
2023-05-15T04:26:06.594Z,61.50
2023-05-15T04:31:09.188Z,60.81
2023-05-15T04:36:11.809Z,60.53
2023-05-15T04:41:14.403Z,60.00
2023-05-15T04:46:17.071Z,59.62
2023-05-15T04:51:19.614Z,59.14
2023-05-15T04:56:22.076Z,57.78
2023-05-15T05:01:24.589Z,56.69
2023-05-15T05:06:28.608Z,56.02
2023-05-15T05:11:32.312Z,55.63
2023-05-15T05:16:35.108Z,54.78
2023-05-15T05:21:37.628Z,54.02
2023-05-15T05:26:40.068Z,53.73
2023-05-15T05:31:42.594Z,52.74
2023-05-15T05:36:45.084Z,52.14
2023-05-15T05:41:47.550Z,52.02
2023-05-15T05:46:49.999Z,51.02
2023-05-15T05:51:53.042Z,50.64
2023-05-15T05:56:55.475Z,50.13
2023-05-15T06:01:58.244Z,49.86
2023-05-15T06:07:00.692Z,48.96
2023-05-15T06:12:05.466Z,48.22
2023-05-15T06:17:08.311Z,47.54
2023-05-15T06:22:10.906Z,47.78
2023-05-15T06:27:13.340Z,46.74
2023-05-15T06:32:15.820Z,46.77
2023-05-15T06:37:21.701Z,46.65
2023-05-15T06:42:24.106Z,46.36
2023-05-15T06:47:26.655Z,46.07
2023-05-15T06:52:29.758Z,45.00
2023-05-15T06:57:33.794Z,44.84
2023-05-15T07:02:36.348Z,44.34
2023-05-15T07:07:38.904Z,44.15
2023-05-15T07:12:41.591Z,43.00
2023-05-15T07:17:44.220Z,43.14
2023-05-15T07:22:55.822Z,42.09
2023-05-15T07:27:59.679Z,42.68
2023-05-15T07:33:02.186Z,41.61
2023-05-15T07:38:05.016Z,41.51
2023-05-15T07:43:07.599Z,41.57
2023-05-15T07:48:17.504Z,39.53
2023-05-15T07:53:23.083Z,40.36
2023-05-15T07:58:26.615Z,40.07
2023-05-15T08:03:29.501Z,39.69
2023-05-15T08:08:32.109Z,38.99
2023-05-15T08:13:34.725Z,38.93
2023-05-15T08:18:37.733Z,38.42
2023-05-15T08:23:40.242Z,38.76
2023-05-15T08:28:42.969Z,38.83
2023-05-15T08:33:46.948Z,37.19
2023-05-15T08:38:49.436Z,37.93
2023-05-15T08:43:53.571Z,36.63
2023-05-15T08:48:56.998Z,36.65
2023-05-15T08:53:59.876Z,35.94
2023-05-15T08:59:02.476Z,36.01
2023-05-15T09:04:05.461Z,36.54
2023-05-15T09:09:13.377Z,36.13
2023-05-15T09:14:15.862Z,35.11
2023-05-15T09:19:23.425Z,34.54
2023-05-15T09:24:28.663Z,34.67
2023-05-15T09:29:32.151Z,34.63
2023-05-15T09:34:39.315Z,34.28
2023-05-15T09:39:43.330Z,33.65
2023-05-15T09:44:46.779Z,33.40
2023-05-15T09:49:49.244Z,33.89
2023-05-15T09:54:52.629Z,32.92
2023-05-15T09:59:55.366Z,33.04
2023-05-15T10:05:00.174Z,32.33
2023-05-15T10:10:04.496Z,31.66
2023-05-15T10:15:09.556Z,30.82
2023-05-15T10:20:12.876Z,30.64
2023-05-15T10:25:36.656Z,30.56
2023-05-15T10:30:39.551Z,30.53
2023-05-15T10:35:43.126Z,29.53
2023-05-15T10:40:45.674Z,29.92
2023-05-15T10:45:48.270Z,29.93
2023-05-15T10:50:51.340Z,29.83
2023-05-15T10:55:54.086Z,30.29
2023-05-15T11:00:56.588Z,29.68
2023-05-15T11:06:13.125Z,28.84
2023-05-15T11:11:56.241Z,29.62
2023-05-15T11:17:00.884Z,29.48
2023-05-15T11:22:09.653Z,29.04
2023-05-15T11:27:13.522Z,31.27
2023-05-15T11:32:43.888Z,29.34
2023-05-15T11:37:48.160Z,28.84
2023-05-15T11:43:20.343Z,29.10
2023-05-15T11:48:24.523Z,28.77
2023-05-15T11:53:27.416Z,28.39
2023-05-15T11:58:30.044Z,28.55
2023-05-15T12:03:38.944Z,28.47
2023-05-15T12:08:42.596Z,28.28
2023-05-15T12:13:45.106Z,27.72
2023-05-15T12:18:48.059Z,27.93
2023-05-15T12:28:58.815Z,27.84
2023-05-15T12:34:01.492Z,27.50
2023-05-15T12:39:08.466Z,27.09
2023-05-15T12:44:20.766Z,27.35
2023-05-15T12:49:23.579Z,27.28
2023-05-15T12:54:26.704Z,27.40
2023-05-15T12:59:29.723Z,27.45
2023-05-15T13:04:35.440Z,27.58
2023-05-15T13:09:38.160Z,27.73
2023-05-15T13:14:42.974Z,27.25
2023-05-15T13:19:45.464Z,27.04
2023-05-15T13:24:47.962Z,27.26
2023-05-15T13:29:50.449Z,27.35
2023-05-15T13:34:55.091Z,27.27
2023-05-15T13:39:57.520Z,27.27
2023-05-15T13:45:00.024Z,26.94
2023-05-15T13:50:15.867Z,26.91
2023-05-15T13:55:18.944Z,27.43
2023-05-15T14:00:23.947Z,27.73
2023-05-15T14:05:28.107Z,27.55
2023-05-15T14:10:30.768Z,27.33
2023-05-15T14:15:34.005Z,27.34
2023-05-15T14:20:36.727Z,27.88
2023-05-15T14:25:39.296Z,27.85
2023-05-15T14:30:41.961Z,27.73
2023-05-15T14:35:44.464Z,27.98
2023-05-15T14:40:46.998Z,28.67
2023-05-15T14:45:49.485Z,28.66
2023-05-15T14:50:52.057Z,28.31
2023-05-15T14:55:58.931Z,27.80
2023-05-15T15:01:01.448Z,28.29
2023-05-15T15:06:04.512Z,27.84
2023-05-15T15:11:08.148Z,28.50
2023-05-15T15:16:10.885Z,29.13
2023-05-15T15:21:13.605Z,28.98
2023-05-15T15:26:16.141Z,29.21
2023-05-15T15:31:19.085Z,29.07
2023-05-15T15:36:22.201Z,28.67
2023-05-15T15:41:24.807Z,29.58
2023-05-15T15:46:27.582Z,29.97
2023-05-15T15:51:30.257Z,29.74
2023-05-15T15:56:32.832Z,30.44
2023-05-15T16:01:35.397Z,30.86
2023-05-15T16:06:38.981Z,30.19
2023-05-15T16:11:41.423Z,31.07
2023-05-15T16:16:43.921Z,31.58
2023-05-15T16:21:47.954Z,32.86
2023-05-15T16:26:51.687Z,33.07
2023-05-15T16:31:54.375Z,33.73
2023-05-15T16:36:57.530Z,34.41
2023-05-15T16:42:00.645Z,34.45
2023-05-15T16:47:03.502Z,35.02
2023-05-15T16:52:06.775Z,35.73
2023-05-15T16:57:09.264Z,35.57
2023-05-15T17:02:11.822Z,36.25
2023-05-15T17:07:14.413Z,36.63
2023-05-15T17:12:17.224Z,37.72
2023-05-15T17:17:19.775Z,37.82
2023-05-15T17:22:23.210Z,38.09
2023-05-15T17:27:25.859Z,38.44
2023-05-15T17:32:28.528Z,38.75
2023-05-15T17:37:31.229Z,39.05
2023-05-15T17:42:33.745Z,39.57
2023-05-15T17:47:36.325Z,39.31
2023-05-15T17:52:38.944Z,40.07
2023-05-15T17:57:41.683Z,40.25
2023-05-15T18:02:44.216Z,40.77
2023-05-15T18:07:48.590Z,41.27
2023-05-15T18:12:51.233Z,41.37
2023-05-15T18:17:53.795Z,41.60
2023-05-15T18:22:56.331Z,42.17
2023-05-15T18:27:59.017Z,42.44
2023-05-15T18:33:01.839Z,42.73
2023-05-15T18:38:04.634Z,42.74
2023-05-15T18:43:08.497Z,43.34
2023-05-15T18:48:11.086Z,43.55
2023-05-15T18:53:13.797Z,43.60
2023-05-15T18:58:16.788Z,44.04
2023-05-15T19:03:21.167Z,44.66
2023-05-15T19:08:23.939Z,44.78
2023-05-15T19:13:30.159Z,45.24
2023-05-15T19:18:32.784Z,45.85
2023-05-15T19:23:35.542Z,46.02
2023-05-15T19:28:38.161Z,46.20
2023-05-15T19:33:43.352Z,46.77
2023-05-15T19:38:46.116Z,46.75
2023-05-15T19:43:50.986Z,47.28
2023-05-15T19:48:54.446Z,47.74
2023-05-15T19:53:57.097Z,47.70
2023-05-15T19:59:00.880Z,48.31
2023-05-15T20:04:03.710Z,48.41
2023-05-15T20:09:06.462Z,48.30
2023-05-15T20:14:09.057Z,48.41
2023-05-15T20:19:17.052Z,48.71
2023-05-15T20:24:19.913Z,49.08
2023-05-15T20:29:23.211Z,49.29
2023-05-15T20:34:25.797Z,49.04
2023-05-15T20:39:28.306Z,49.35
2023-05-15T20:44:31.063Z,49.98
2023-05-15T20:49:33.599Z,50.02
2023-05-15T20:54:36.155Z,50.06
2023-05-15T20:59:38.660Z,50.39
2023-05-15T21:04:41.603Z,50.52
2023-05-15T21:09:44.245Z,50.76
2023-05-15T21:14:47.077Z,51.09
2023-05-15T21:19:49.959Z,51.73
2023-05-15T21:24:52.710Z,51.60
2023-05-15T21:29:55.382Z,52.17
2023-05-15T21:34:57.831Z,52.31
2023-05-15T21:40:00.553Z,52.75
2023-05-15T21:45:07.127Z,52.99
2023-05-15T21:50:09.969Z,53.09
2023-05-15T21:55:12.387Z,53.33
2023-05-15T22:00:16.559Z,53.54
2023-05-15T22:05:19.142Z,53.85
2023-05-15T22:10:22.680Z,54.22
2023-05-15T22:15:25.190Z,54.50
2023-05-15T22:20:29.503Z,54.89
2023-05-15T22:25:32.182Z,55.29
2023-05-15T22:30:35.465Z,55.35
2023-05-15T22:35:38.299Z,55.64
2023-05-15T22:40:40.969Z,55.41
2023-05-15T22:45:43.731Z,55.71
2023-05-15T22:50:46.453Z,55.69
2023-05-15T22:55:49.147Z,55.49
2023-05-15T23:00:52.146Z,55.47
2023-05-15T23:05:55.185Z,55.60
2023-05-15T23:10:57.905Z,55.81
2023-05-15T23:16:00.758Z,55.95
2023-05-15T23:21:05.112Z,55.82
2023-05-15T23:26:08.076Z,55.83
2023-05-15T23:31:13.428Z,56.17
2023-05-15T23:36:16.469Z,56.16
2023-05-15T23:41:19.598Z,56.42
2023-05-15T23:46:22.656Z,56.42
2023-05-15T23:51:25.345Z,56.75
2023-05-15T23:56:27.769Z,56.84
